Time;durP1;ratioP1;P1;durP2;ratioP2;P2;SDS_P1;SDS_P2;PMS_P1;PMS_P2;Temp;Humidity;BMP_temperature;BMP_pressure;BME280_temperature;BME280_humidity;BME280_pressure;Samples;Min_cycle;Max_cycle;Signal;HPM_P1;HPM_P2
2022/07/14 00:00:38;;;;;;;4.45;2.80;;;23.80;63.80;;;;;;6074484;23;86676;-85
2022/07/14 00:03:04;;;;;;;4.30;2.88;;;23.80;63.80;;;;;;6047956;23;90210;-85
2022/07/14 00:05:31;;;;;;;4.30;2.78;;;23.80;63.80;;;;;;6071896;23;90486;-85
2022/07/14 00:07:56;;;;;;;2.53;2.33;;;23.80;63.90;;;;;;6073877;23;88209;-85
2022/07/14 00:10:22;;;;;;;3.67;2.90;;;23.80;63.90;;;;;;6047799;23;86785;-85
2022/07/14 00:12:48;;;;;;;3.33;2.63;;;23.80;63.90;;;;;;6047920;23;90414;-85
2022/07/14 00:15:13;;;;;;;3.45;2.47;;;23.80;63.80;;;;;;6046859;23;90966;-85
2022/07/14 00:17:39;;;;;;;3.10;2.80;;;23.80;63.60;;;;;;6073745;23;88265;-85
2022/07/14 00:20:05;;;;;;;2.90;2.67;;;23.80;63.70;;;;;;6073928;23;88265;-85
2022/07/14 00:22:31;;;;;;;2.78;2.47;;;23.80;63.50;;;;;;6074251;23;87849;-85
2022/07/14 00:24:56;;;;;;;3.38;2.53;;;23.80;64.00;;;;;;6074121;23;87244;-85
2022/07/14 00:27:22;;;;;;;3.17;2.78;;;23.80;64.00;;;;;;6074152;23;88195;-85
2022/07/14 00:29:47;;;;;;;3.17;2.35;;;23.70;63.80;;;;;;6074241;23;87085;-85
2022/07/14 00:32:13;;;;;;;2.80;2.60;;;23.80;64.00;;;;;;6074151;23;87315;-85
2022/07/14 00:34:49;;;;;;;3.22;2.90;;;23.70;63.80;;;;;;6073274;23;87612;-85
2022/07/14 00:37:14;;;;;;;2.78;2.47;;;23.70;63.80;;;;;;6072807;23;86925;-85
2022/07/14 00:39:55;;;;;;;2.67;2.40;;;23.70;63.70;;;;;;6072729;23;86821;-85
2022/07/14 00:42:38;;;;;;;2.65;2.45;;;23.80;63.90;;;;;;6074425;23;87370;-85
2022/07/14 00:45:09;;;;;;;2.55;2.35;;;23.70;63.70;;;;;;6073052;23;89418;-85
2022/07/14 00:47:35;;;;;;;4.03;2.92;;;23.70;63.80;;;;;;6073655;23;90937;-85
2022/07/14 00:50:02;;;;;;;3.08;2.67;;;23.80;63.80;;;;;;6047726;23;86938;-85
2022/07/14 00:52:29;;;;;;;3.45;2.53;;;23.70;63.80;;;;;;6073878;23;87385;-85
2022/07/14 00:55:00;;;;;;;3.10;2.80;;;23.70;63.70;;;;;;6047412;23;90077;-85
2022/07/14 00:57:26;;;;;;;2.97;2.75;;;23.70;63.50;;;;;;6073640;23;87842;-85
2022/07/14 00:59:53;;;;;;;2.90;2.63;;;23.70;63.60;;;;;;6073892;23;86645;-85
2022/07/14 01:02:19;;;;;;;3.25;2.70;;;23.70;63.70;;;;;;6074700;23;87517;-85
2022/07/14 01:04:46;;;;;;;2.80;2.50;;;23.70;63.60;;;;;;6073299;23;88055;-85
2022/07/14 01:07:12;;;;;;;2.45;2.25;;;23.70;63.40;;;;;;6073374;23;88695;-85
2022/07/14 01:09:39;;;;;;;2.80;2.42;;;23.70;63.60;;;;;;6073389;23;87727;-85
2022/07/14 01:12:05;;;;;;;2.42;2.20;;;23.70;63.50;;;;;;6073755;23;86686;-85
2022/07/14 01:14:31;;;;;;;2.88;2.67;;;23.70;63.50;;;;;;6073400;23;87716;-85
2022/07/14 01:16:57;;;;;;;2.70;2.50;;;23.70;63.30;;;;;;6073640;23;88153;-85
2022/07/14 01:19:24;;;;;;;2.33;2.13;;;23.70;63.60;;;;;;6047551;23;86868;-85
2022/07/14 01:21:51;;;;;;;2.83;1.90;;;23.70;63.50;;;;;;6072997;23;86834;-85
2022/07/14 01:24:17;;;;;;;2.30;2.10;;;23.70;63.40;;;;;;6073529;23;88297;-85
2022/07/14 01:26:43;;;;;;;3.15;2.20;;;23.70;63.50;;;;;;6074165;23;87932;-85
2022/07/14 01:29:09;;;;;;;4.43;2.42;;;23.70;63.40;;;;;;6047533;23;86786;-85
2022/07/14 01:31:34;;;;;;;2.15;1.90;;;23.70;63.50;;;;;;6073650;23;87112;-85
2022/07/14 01:34:00;;;;;;;2.28;2.10;;;23.70;63.60;;;;;;6046640;23;92335;-85
2022/07/14 01:36:29;;;;;;;2.30;2.10;;;23.70;63.50;;;;;;6046922;23;91114;-85
2022/07/14 01:38:57;;;;;;;2.70;2.50;;;23.70;63.40;;;;;;6074022;23;86835;-85
2022/07/14 01:41:23;;;;;;;2.67;2.20;;;23.70;63.70;;;;;;6047147;23;89993;-85
2022/07/14 01:43:49;;;;;;;2.55;2.28;;;23.70;63.70;;;;;;6012566;23;90536;-85
2022/07/14 01:46:15;;;;;;;2.30;2.10;;;23.70;63.80;;;;;;5988346;23;91056;-85
2022/07/14 01:48:41;;;;;;;2.65;2.45;;;23.70;63.70;;;;;;6012873;23;86765;-85
2022/07/14 01:51:07;;;;;;;2.42;2.22;;;23.70;63.60;;;;;;6013183;23;87097;-84
2022/07/14 01:53:33;;;;;;;2.40;2.20;;;23.70;63.50;;;;;;6012598;23;88226;-85
2022/07/14 01:56:00;;;;;;;2.10;2.00;;;23.70;63.70;;;;;;6012751;23;88058;-85
2022/07/14 01:58:26;;;;;;;3.40;2.03;;;23.70;63.80;;;;;;5988089;23;88127;-85
2022/07/14 02:03:36;;;;;;;2.42;2.13;;;23.70;63.70;;;;;;6012509;23;86808;-85
2022/07/14 02:06:03;;;;;;;2.20;1.98;;;23.70;63.60;;;;;;6012202;23;87030;-85
2022/07/14 02:08:28;;;;;;;2.58;1.90;;;23.70;63.50;;;;;;6012712;23;86906;-85
2022/07/14 02:13:43;;;;;;;1.95;1.75;;;23.60;63.50;;;;;;6012076;23;88320;-85
2022/07/14 02:16:09;;;;;;;2.35;2.15;;;23.70;63.70;;;;;;5988529;23;88946;-85
2022/07/14 02:18:35;;;;;;;2.83;2.38;;;23.70;63.60;;;;;;6012762;23;86827;-85
2022/07/14 02:21:00;;;;;;;1.80;1.70;;;23.70;63.60;;;;;;6035739;23;87417;-85
2022/07/14 02:23:26;;;;;;;2.88;2.20;;;23.60;63.60;;;;;;6072640;23;89347;-85
2022/07/14 02:25:52;;;;;;;2.25;1.90;;;23.70;63.70;;;;;;6073098;23;89278;-85
2022/07/14 02:28:17;;;;;;;2.13;1.92;;;23.60;63.60;;;;;;6073700;23;86774;-85
2022/07/14 02:30:44;;;;;;;2.35;2.15;;;23.70;63.70;;;;;;6073203;23;86727;-85
2022/07/14 02:33:10;;;;;;;3.03;2.20;;;23.60;63.60;;;;;;6046814;23;89774;-85
2022/07/14 02:35:36;;;;;;;2.20;2.00;;;23.70;63.70;;;;;;6074505;23;86721;-85
2022/07/14 02:38:02;;;;;;;1.88;1.75;;;23.70;63.70;;;;;;6074526;23;86728;-85
2022/07/14 02:40:27;;;;;;;2.00;1.80;;;23.60;63.60;;;;;;6074804;23;87161;-85
2022/07/14 02:42:53;;;;;;;2.38;2.17;;;23.60;63.40;;;;;;6074210;23;88576;-85
2022/07/14 02:45:19;;;;;;;2.10;1.88;;;23.60;63.70;;;;;;6074618;23;88032;-85
2022/07/14 02:47:51;;;;;;;2.38;1.95;;;23.60;63.60;;;;;;6047813;23;87766;-85
2022/07/14 02:50:17;;;;;;;3.05;1.95;;;23.60;63.60;;;;;;6048262;23;90319;-85
2022/07/14 02:52:43;;;;;;;1.95;1.85;;;23.60;63.60;;;;;;6074099;23;87641;-85
2022/07/14 02:55:09;;;;;;;1.90;1.80;;;23.60;63.60;;;;;;6074399;23;87888;-85
2022/07/14 02:57:34;;;;;;;2.10;1.90;;;23.60;63.60;;;;;;6074336;23;87459;-85
2022/07/14 03:00:00;;;;;;;2.70;2.10;;;23.60;63.60;;;;;;6074382;23;86802;-85
2022/07/14 03:02:26;;;;;;;3.22;2.17;;;23.60;63.60;;;;;;6074672;23;87608;-85
2022/07/14 03:04:51;;;;;;;2.10;1.85;;;23.60;63.70;;;;;;6074585;23;88202;-85
2022/07/14 03:07:17;;;;;;;2.10;1.90;;;23.60;63.50;;;;;;6072545;23;87188;-85
2022/07/14 03:09:43;;;;;;;1.98;1.70;;;23.60;63.60;;;;;;6048040;23;88590;-85
2022/07/14 03:12:09;;;;;;;3.17;1.98;;;23.60;63.50;;;;;;6073707;23;89378;-85
2022/07/14 03:14:34;;;;;;;2.60;2.30;;;23.60;63.70;;;;;;6047394;23;92200;-85
2022/07/14 03:17:00;;;;;;;2.25;2.00;;;23.60;63.60;;;;;;6074561;23;86767;-84
2022/07/14 03:19:26;;;;;;;2.05;1.80;;;23.60;63.60;;;;;;6074143;23;87123;-85
2022/07/14 03:21:52;;;;;;;2.58;2.33;;;23.60;63.70;;;;;;6074065;23;88626;-85
2022/07/14 03:24:20;;;;;;;2.40;2.20;;;23.60;63.70;;;;;;6071969;23;90919;-85
2022/07/14 03:26:46;;;;;;;2.30;2.10;;;23.60;63.70;;;;;;6074325;23;86832;-84
2022/07/14 03:29:11;;;;;;;2.08;1.90;;;23.60;63.70;;;;;;6074415;23;86355;-84
2022/07/14 03:31:38;;;;;;;2.05;1.85;;;23.60;63.60;;;;;;6074241;23;87172;-84
2022/07/14 03:34:14;;;;;;;;;;;;;;;;;;;;;
2022/07/14 03:36:39;;;;;;;2.55;2.05;;;23.60;63.70;;;;;;6012746;23;87901;-85
2022/07/14 03:39:05;;;;;;;1.95;1.85;;;23.60;63.80;;;;;;6013765;23;87067;-85
2022/07/14 03:41:31;;;;;;;2.00;1.77;;;23.60;63.70;;;;;;6013324;23;88061;-85
2022/07/14 03:43:57;;;;;;;1.85;1.75;;;23.60;63.50;;;;;;6013747;23;87821;-85
2022/07/14 03:46:22;;;;;;;2.10;1.85;;;23.60;63.60;;;;;;6013431;23;86852;-85
2022/07/14 03:48:48;;;;;;;1.83;1.67;;;23.60;63.60;;;;;;5989294;23;90675;-85
2022/07/14 03:51:13;;;;;;;1.90;1.80;;;23.60;63.60;;;;;;6013358;23;88542;-84
2022/07/14 03:53:39;;;;;;;1.83;1.73;;;23.60;63.70;;;;;;6013877;23;87008;-84
2022/07/14 03:56:05;;;;;;;3.05;1.80;;;23.60;63.70;;;;;;5989501;23;86797;-84
2022/07/14 03:58:30;;;;;;;2.30;2.08;;;23.60;63.80;;;;;;5988382;23;89600;-84
2022/07/14 04:00:56;;;;;;;2.10;1.90;;;23.60;63.70;;;;;;6013203;23;89206;-84
2022/07/14 04:03:22;;;;;;;1.90;1.75;;;23.60;63.70;;;;;;6012858;23;88130;-84
2022/07/14 04:05:47;;;;;;;1.88;1.77;;;23.60;63.70;;;;;;6061710;23;86785;-84
2022/07/14 04:08:13;;;;;;;2.10;1.92;;;23.60;63.70;;;;;;6074020;23;87118;-84
2022/07/14 04:10:39;;;;;;;1.83;1.73;;;23.60;63.80;;;;;;6074094;23;86799;-84
2022/07/14 04:13:04;;;;;;;2.20;2.00;;;23.60;63.70;;;;;;6073910;23;87539;-85
2022/07/14 04:22:14;;;;;;;2.10;1.90;;;23.60;63.70;;;;;;6073869;23;87104;-85
2022/07/14 04:24:41;;;;;;;1.90;1.70;;;23.60;63.70;;;;;;6074029;23;86726;-84
2022/07/14 04:27:07;;;;;;;2.10;1.90;;;23.60;63.80;;;;;;6073787;23;87716;-85
2022/07/14 04:29:33;;;;;;;2.42;2.22;;;23.50;63.60;;;;;;6047074;23;89719;-84
2022/07/14 04:31:59;;;;;;;2.13;1.92;;;23.50;63.60;;;;;;6046352;23;91517;-84
2022/07/14 04:34:24;;;;;;;1.80;1.65;;;23.50;63.70;;;;;;6072585;23;88093;-85
2022/07/14 04:36:50;;;;;;;2.03;1.83;;;23.50;63.60;;;;;;6073374;23;86698;-84
2022/07/14 04:39:15;;;;;;;2.40;1.95;;;23.50;63.70;;;;;;6073751;23;86865;-84
2022/07/14 04:41:41;;;;;;;1.90;1.80;;;23.50;63.70;;;;;;6047635;23;91171;-85
2022/07/14 04:44:14;;;;;;;1.80;1.70;;;23.50;63.70;;;;;;6074394;23;87019;-84
2022/07/14 04:46:39;;;;;;;1.90;1.80;;;23.50;63.80;;;;;;6047742;23;87204;-84
2022/07/14 04:52:04;;;;;;;2.15;1.85;;;23.50;63.60;;;;;;6073205;23;87746;-84
2022/07/14 04:54:34;;;;;;;2.03;1.83;;;23.50;63.80;;;;;;6073670;23;89223;-84
2022/07/14 04:57:01;;;;;;;2.13;1.83;;;23.60;63.50;;;;;;6073168;23;86828;-84
2022/07/14 04:59:27;;;;;;;2.10;1.90;;;23.50;63.60;;;;;;6073942;23;87065;-85
2022/07/14 05:01:55;;;;;;;2.42;1.95;;;23.50;63.60;;;;;;6073942;23;88378;-84
2022/07/14 05:04:29;;;;;;;2.05;1.85;;;23.50;63.60;;;;;;6073652;23;87286;-84
2022/07/14 05:06:55;;;;;;;2.22;2.03;;;23.50;63.70;;;;;;6074200;23;86691;-84
2022/07/14 05:09:23;;;;;;;2.17;1.80;;;23.50;63.80;;;;;;6074080;23;85985;-84
2022/07/14 05:11:49;;;;;;;2.13;1.60;;;23.60;64.00;;;;;;6073788;23;88436;-84
2022/07/14 05:14:15;;;;;;;2.53;1.90;;;23.50;63.80;;;;;;6072990;23;88054;-84
2022/07/14 05:16:41;;;;;;;2.00;1.75;;;23.50;63.90;;;;;;6046835;23;87617;-84
2022/07/14 05:19:06;;;;;;;2.50;2.05;;;23.60;63.90;;;;;;6073531;23;88049;-84
2022/07/14 05:21:33;;;;;;;2.05;1.85;;;23.50;63.60;;;;;;6047378;23;89377;-84
2022/07/14 05:23:59;;;;;;;1.83;1.73;;;23.60;63.80;;;;;;6073651;23;88260;-84
2022/07/14 05:26:24;;;;;;;1.77;1.67;;;23.50;63.60;;;;;;6074118;23;87194;-84
2022/07/14 05:28:50;;;;;;;2.05;1.60;;;23.50;63.70;;;;;;6047199;23;89856;-85
2022/07/14 05:31:16;;;;;;;1.83;1.73;;;23.50;63.80;;;;;;6073736;23;87325;-84
2022/07/14 05:33:42;;;;;;;2.03;1.63;;;23.50;63.80;;;;;;6071711;23;90866;-84
2022/07/14 05:36:07;;;;;;;2.17;2.00;;;23.50;63.90;;;;;;6046998;23;86804;-84
2022/07/14 05:38:33;;;;;;;2.00;1.75;;;23.50;63.80;;;;;;6073590;23;87192;-84
2022/07/14 05:41:01;;;;;;;1.80;1.70;;;23.50;63.90;;;;;;6072806;23;88397;-83
2022/07/14 05:43:27;;;;;;;1.75;1.65;;;23.50;63.90;;;;;;6047075;23;91558;-84
2022/07/14 05:46:02;;;;;;;2.00;1.90;;;23.50;63.90;;;;;;6073798;23;86692;-85
2022/07/14 05:48:27;;;;;;;1.90;1.80;;;23.50;64.00;;;;;;6047420;23;90451;-84
2022/07/14 05:50:53;;;;;;;1.95;1.70;;;23.50;63.90;;;;;;6071451;23;91028;-84
2022/07/14 05:53:18;;;;;;;1.75;1.65;;;23.50;63.70;;;;;;6073175;23;87947;-84
2022/07/14 05:55:46;;;;;;;1.73;1.63;;;23.50;63.80;;;;;;6073794;23;86914;-85
2022/07/14 05:58:12;;;;;;;2.78;2.10;;;23.50;64.00;;;;;;6047306;23;89659;-84
2022/07/14 06:00:37;;;;;;;2.10;1.90;;;23.50;63.90;;;;;;6073830;23;88039;-84
2022/07/14 06:03:03;;;;;;;2.40;2.05;;;23.50;63.90;;;;;;6072566;23;88229;-84
2022/07/14 06:05:28;;;;;;;2.33;2.05;;;23.60;64.00;;;;;;6072412;23;88176;-85
2022/07/14 06:07:54;;;;;;;2.33;2.13;;;23.50;63.90;;;;;;6073819;23;86881;-84
2022/07/14 06:10:20;;;;;;;2.10;1.90;;;23.50;63.80;;;;;;6076576;23;88107;-84
2022/07/14 06:12:46;;;;;;;1.98;1.88;;;23.50;63.90;;;;;;6050642;23;90918;-84
2022/07/14 06:18:34;;;;;;;2.00;1.73;;;23.50;63.70;;;;;;6075644;23;86767;-84
2022/07/14 06:21:00;;;;;;;1.80;1.70;;;23.60;64.00;;;;;;6050418;23;91350;-85
2022/07/14 06:23:26;;;;;;;1.92;1.73;;;23.60;63.70;;;;;;6051243;23;91582;-84
2022/07/14 06:25:52;;;;;;;3.00;1.67;;;23.60;63.80;;;;;;6077532;23;86773;-85
2022/07/14 06:28:18;;;;;;;1.80;1.70;;;23.60;63.70;;;;;;6076957;23;87193;-85
2022/07/14 06:30:43;;;;;;;1.98;1.77;;;23.70;63.70;;;;;;6076986;23;89264;-84
2022/07/14 06:33:09;;;;;;;1.60;1.50;;;23.70;63.70;;;;;;6077240;23;89141;-84
2022/07/14 06:35:41;;;;;;;2.55;1.75;;;23.70;63.70;;;;;;6051917;23;86818;-85
2022/07/14 06:38:07;;;;;;;1.55;1.45;;;23.70;63.50;;;;;;6053139;23;90752;-86
2022/07/14 06:40:32;;;;;;;2.95;1.85;;;23.70;63.60;;;;;;6077337;23;90518;-86
2022/07/14 06:42:58;;;;;;;3.40;1.45;;;23.70;63.70;;;;;;6081908;23;91379;-86
2022/07/14 06:45:24;;;;;;;4.63;2.08;;;23.70;61.30;;;;;;6053419;23;87158;-87
2022/07/14 06:47:49;;;;;;;8.40;2.65;;;23.70;61.70;;;;;;6080024;23;86105;-85
2022/07/14 06:50:15;;;;;;;11.75;3.05;;;23.70;62.10;;;;;;6077638;23;87572;-85
2022/07/14 06:52:41;;;;;;;12.98;3.22;;;23.70;61.60;;;;;;6077318;23;88053;-86
2022/07/14 06:55:07;;;;;;;15.32;3.28;;;23.70;60.90;;;;;;6076019;23;87739;-86
2022/07/14 06:57:33;;;;;;;13.77;2.80;;;23.60;61.00;;;;;;6080423;23;88224;-86
2022/07/14 06:59:59;;;;;;;18.42;3.72;;;23.60;60.40;;;;;;6079671;23;88335;-86
2022/07/14 07:02:25;;;;;;;15.73;3.42;;;23.50;59.80;;;;;;6079261;23;88248;-86
2022/07/14 07:07:35;;;;;;;16.45;3.40;;;23.60;59.90;;;;;;6078126;23;86861;-86
2022/07/14 07:10:04;;;;;;;11.48;2.95;;;23.50;59.40;;;;;;6077865;23;88863;-86
2022/07/14 07:12:30;;;;;;;12.15;3.50;;;23.50;59.30;;;;;;6045677;23;90290;-86
2022/07/14 07:14:56;;;;;;;15.32;3.10;;;23.50;59.40;;;;;;6019794;23;86886;-87
2022/07/14 07:17:21;;;;;;;12.75;2.97;;;23.50;59.30;;;;;;6044869;23;87463;-87
2022/07/14 07:19:47;;;;;;;16.17;3.25;;;23.50;58.80;;;;;;6043039;23;89130;-87
2022/07/14 07:22:13;;;;;;;12.27;3.22;;;23.40;58.70;;;;;;6018959;23;92007;-87
2022/07/14 07:24:38;;;;;;;12.27;2.65;;;23.50;58.60;;;;;;6019040;23;86932;-87
2022/07/14 07:27:04;;;;;;;9.18;3.03;;;23.50;58.50;;;;;;6043538;23;86857;-87
2022/07/14 07:29:30;;;;;;;13.40;2.83;;;23.40;58.30;;;;;;5993445;23;88794;-87
2022/07/14 07:31:56;;;;;;;11.30;3.38;;;23.50;58.20;;;;;;5955542;23;91297;-83
2022/07/14 07:34:21;;;;;;;13.02;3.67;;;24.10;58.20;;;;;;6045719;23;87207;-85
2022/07/14 07:36:47;;;;;;;31.13;3.50;;;24.00;57.70;;;;;;6045201;23;86737;-83
2022/07/14 07:39:13;;;;;;;78.78;15.80;;;24.10;58.20;;;;;;6046294;23;87358;-85
2022/07/14 07:41:39;;;;;;;62.95;11.02;;;24.10;57.90;;;;;;6045715;23;87765;-85
2022/07/14 07:44:05;;;;;;;50.47;10.93;;;24.20;57.60;;;;;;6068729;23;87756;-84
2022/07/14 07:46:31;;;;;;;51.67;9.68;;;24.30;57.40;;;;;;6078478;23;86794;-83
2022/07/14 07:48:56;;;;;;;49.63;9.93;;;24.30;57.20;;;;;;6078454;23;88103;-84
2022/07/14 07:51:22;;;;;;;42.35;8.68;;;24.30;57.00;;;;;;6078078;23;88011;-84
2022/07/14 07:53:47;;;;;;;36.35;7.35;;;24.30;57.10;;;;;;6078629;23;87347;-84
2022/07/14 07:56:13;;;;;;;34.55;8.07;;;24.30;57.00;;;;;;6078537;23;86822;-84
2022/07/14 07:58:39;;;;;;;35.15;8.05;;;24.30;57.00;;;;;;6078368;23;88333;-84
2022/07/14 08:01:04;;;;;;;37.83;8.38;;;24.40;56.90;;;;;;6079223;23;88005;-84
2022/07/14 08:03:30;;;;;;;38.17;9.27;;;24.40;56.70;;;;;;6078517;23;86852;-84
2022/07/14 08:05:56;;;;;;;33.85;7.80;;;24.50;56.80;;;;;;6051122;23;90068;-84
2022/07/14 08:08:21;;;;;;;35.83;9.20;;;24.50;56.80;;;;;;6050926;23;92399;-84
2022/07/14 08:10:47;;;;;;;40.35;8.82;;;24.50;56.70;;;;;;6078220;23;88701;-84
2022/07/14 08:13:13;;;;;;;31.25;7.03;;;24.50;56.60;;;;;;6078560;23;86961;-84
2022/07/14 08:15:39;;;;;;;33.90;7.47;;;24.50;56.30;;;;;;6078069;23;87328;-84
2022/07/14 08:18:07;;;;;;;27.60;7.53;;;24.60;55.90;;;;;;6077767;23;89353;-84
2022/07/14 08:20:34;;;;;;;30.35;7.50;;;24.60;56.00;;;;;;6052144;23;89925;-84
2022/07/14 08:23:00;;;;;;;27.33;7.85;;;24.60;56.00;;;;;;6079236;23;87094;-84
2022/07/14 08:25:26;;;;;;;28.58;6.50;;;24.60;56.10;;;;;;6078683;23;87010;-84
2022/07/14 08:27:52;;;;;;;29.15;7.28;;;24.60;55.90;;;;;;6078189;23;87604;-84
2022/07/14 08:30:18;;;;;;;30.25;6.72;;;24.60;55.90;;;;;;6077151;23;88222;-84
2022/07/14 08:32:51;;;;;;;27.63;7.15;;;24.60;56.00;;;;;;6076208;23;88315;-83
2022/07/14 08:35:23;;;;;;;25.85;6.25;;;24.70;56.10;;;;;;6077309;23;86856;-84
2022/07/14 08:37:49;;;;;;;29.40;6.90;;;24.70;56.10;;;;;;6077661;23;87543;-84
2022/07/14 08:40:17;;;;;;;27.25;7.57;;;24.70;56.10;;;;;;6077960;23;88246;-84
2022/07/14 08:42:44;;;;;;;24.70;6.68;;;24.70;56.10;;;;;;6078004;23;86816;-84
2022/07/14 08:45:14;;;;;;;26.25;7.40;;;24.70;55.90;;;;;;6078556;23;87424;-84
2022/07/14 08:47:41;;;;;;;27.30;7.07;;;24.70;56.00;;;;;;6078608;23;88532;-84
2022/07/14 08:50:09;;;;;;;29.23;7.10;;;24.70;56.00;;;;;;6078315;23;86442;-84
2022/07/14 08:52:36;;;;;;;23.27;6.50;;;24.70;55.90;;;;;;6078590;23;86943;-84
2022/07/14 08:55:04;;;;;;;21.48;6.55;;;24.70;55.90;;;;;;6077433;23;87310;-84
2022/07/14 08:57:30;;;;;;;24.38;6.40;;;24.70;55.90;;;;;;6077139;23;89524;-84
2022/07/14 08:59:55;;;;;;;20.75;6.40;;;24.70;55.90;;;;;;6077608;23;88656;-84
2022/07/14 09:02:22;;;;;;;20.38;6.60;;;24.70;55.80;;;;;;6078882;23;86847;-84
2022/07/14 09:04:47;;;;;;;22.92;5.70;;;24.70;55.70;;;;;;6077696;23;86755;-84
2022/07/14 09:07:35;;;;;;;20.58;6.13;;;24.70;55.80;;;;;;6077744;23;87576;-84
2022/07/14 09:10:08;;;;;;;20.40;6.63;;;24.70;55.50;;;;;;6051815;23;90827;-84
2022/07/14 09:12:34;;;;;;;16.83;5.85;;;24.70;55.60;;;;;;6078106;23;87139;-84
2022/07/14 09:17:50;;;;;;;22.17;6.72;;;24.70;55.70;;;;;;6077692;23;87067;-84
2022/07/14 09:20:16;;;;;;;17.83;5.68;;;24.70;55.90;;;;;;6077712;23;87849;-84
2022/07/14 09:22:43;;;;;;;19.40;5.70;;;24.70;55.90;;;;;;6077528;23;87893;-84
2022/07/14 09:25:15;;;;;;;17.25;6.05;;;24.80;55.80;;;;;;6077595;23;86785;-84
2022/07/14 09:27:42;;;;;;;20.02;6.38;;;24.80;55.60;;;;;;6078190;23;87151;-84
2022/07/14 09:30:11;;;;;;;17.65;5.45;;;24.70;55.70;;;;;;6077014;23;90024;-84
2022/07/14 09:32:59;;;;;;;16.95;5.90;;;24.70;55.70;;;;;;6078061;23;86815;-84
2022/07/14 09:35:36;;;;;;;14.50;4.68;;;24.70;55.70;;;;;;6078181;23;87312;-84
2022/07/14 09:38:17;;;;;;;15.63;5.40;;;24.70;55.50;;;;;;6077617;23;88210;-84
2022/07/14 09:40:43;;;;;;;15.93;5.13;;;24.80;55.10;;;;;;6051867;23;91207;-84
2022/07/14 09:43:12;;;;;;;15.35;4.72;;;24.80;55.10;;;;;;6077956;23;86737;-84
2022/07/14 09:45:44;;;;;;;15.60;4.80;;;24.80;55.20;;;;;;6078075;23;86697;-84
2022/07/14 09:48:15;;;;;;;15.65;5.25;;;24.80;55.30;;;;;;6076741;23;89365;-84
2022/07/14 09:50:48;;;;;;;11.75;4.82;;;24.70;55.60;;;;;;6077497;23;88178;-84
2022/07/14 09:53:21;;;;;;;18.38;5.38;;;24.70;55.50;;;;;;6077664;23;86832;-83
2022/07/14 09:56:00;;;;;;;16.20;5.28;;;24.70;55.50;;;;;;6077333;23;86966;-84
2022/07/14 09:58:33;;;;;;;16.80;4.80;;;24.70;55.70;;;;;;6077048;23;88500;-84
2022/07/14 10:01:03;;;;;;;17.70;4.95;;;24.80;55.30;;;;;;6078018;23;89893;-84
2022/07/14 10:03:31;;;;;;;16.67;4.70;;;24.80;55.50;;;;;;6078061;23;86818;-84
2022/07/14 10:05:58;;;;;;;16.85;4.28;;;24.80;55.80;;;;;;6077804;23;86867;-83
2022/07/14 10:08:33;;;;;;;13.95;4.55;;;24.80;55.80;;;;;;6077804;23;87509;-83
2022/07/14 10:10:59;;;;;;;17.13;5.47;;;24.80;55.60;;;;;;6077975;23;87858;-84
2022/07/14 10:13:25;;;;;;;11.65;4.55;;;24.80;55.50;;;;;;6077390;23;87728;-84
2022/07/14 10:15:53;;;;;;;12.85;4.47;;;24.80;55.60;;;;;;6051541;23;89929;-84
2022/07/14 10:18:21;;;;;;;12.52;4.35;;;24.80;55.60;;;;;;6077552;23;88473;-85
2022/07/14 10:20:50;;;;;;;13.95;5.00;;;24.80;55.60;;;;;;6077746;23;87219;-83
2022/07/14 10:23:18;;;;;;;10.27;4.07;;;24.80;55.60;;;;;;6077350;23;87034;-82
2022/07/14 10:25:46;;;;;;;19.50;4.45;;;24.90;55.10;;;;;;6076815;23;88898;-83
2022/07/14 10:28:14;;;;;;;12.23;3.30;;;24.80;55.30;;;;;;6077372;23;88050;-83
2022/07/14 10:31:07;;;;;;;14.35;3.88;;;24.90;54.00;;;;;;6077772;23;87785;-84
2022/07/14 10:33:50;;;;;;;12.98;3.50;;;24.90;54.20;;;;;;6077894;23;87214;-85
2022/07/14 10:36:23;;;;;;;15.18;3.28;;;24.90;53.00;;;;;;6074125;23;87417;-83
2022/07/14 10:39:00;;;;;;;10.35;3.05;;;24.90;52.90;;;;;;6076441;23;89540;-83
2022/07/14 10:41:56;;;;;;;15.80;3.63;;;24.90;53.10;;;;;;6050795;23;92024;-83
2022/07/14 10:44:25;;;;;;;12.07;2.97;;;24.90;51.40;;;;;;5931657;23;87293;-84
2022/07/14 10:47:04;;;;;;;12.30;3.03;;;24.90;52.10;;;;;;5931150;23;86883;-82
2022/07/14 10:49:30;;;;;;;16.52;3.35;;;25.00;51.20;;;;;;5929950;23;88557;-83
2022/07/14 10:51:56;;;;;;;9.13;2.72;;;24.90;51.70;;;;;;5930598;23;87501;-83
2022/07/14 10:54:25;;;;;;;9.30;2.70;;;24.90;52.10;;;;;;5836851;23;86872;-83
2022/07/14 10:57:09;;;;;;;9.18;2.30;;;24.90;51.10;;;;;;5932347;23;86873;-83
2022/07/14 10:59:36;;;;;;;11.07;2.75;;;25.00;50.80;;;;;;5932024;23;87573;-83
2022/07/14 11:02:25;;;;;;;9.10;2.55;;;24.90;50.90;;;;;;5909053;23;88175;-82
2022/07/14 11:05:02;;;;;;;12.68;2.42;;;24.90;50.90;;;;;;5877423;24;87946;-83
2022/07/14 11:07:41;;;;;;;7.50;2.22;;;24.90;50.70;;;;;;5877178;24;88191;-83
2022/07/14 11:10:18;;;;;;;7.00;2.57;;;25.00;50.40;;;;;;5876549;24;89941;-82
2022/07/14 11:13:02;;;;;;;8.23;2.20;;;25.00;50.50;;;;;;5877133;24;88288;-83
2022/07/14 11:15:38;;;;;;;7.13;2.30;;;25.00;50.60;;;;;;5876948;24;87345;-83
2022/07/14 11:18:20;;;;;;;9.70;2.65;;;25.00;50.50;;;;;;5876362;24;87249;-83
2022/07/14 11:20:51;;;;;;;5.50;2.10;;;25.00;50.70;;;;;;5902506;23;87457;-83
2022/07/14 11:23:23;;;;;;;6.82;2.30;;;25.00;50.90;;;;;;6016837;23;87671;-83
2022/07/14 11:25:50;;;;;;;13.90;2.25;;;25.00;51.00;;;;;;6016641;23;86910;-83
2022/07/14 11:28:31;;;;;;;8.55;2.63;;;25.00;50.50;;;;;;6017441;23;86932;-83
2022/07/14 11:31:12;;;;;;;8.13;2.20;;;25.00;50.40;;;;;;6015531;23;89335;-83
2022/07/14 11:36:17;;;;;;;4.95;1.90;;;25.00;50.70;;;;;;6016576;23;90245;-83
2022/07/14 11:36:28;;;;;;;6.38;2.13;;;25.00;49.80;;;;;;6017029;23;86802;-83
2022/07/14 11:39:14;;;;;;;5.65;2.08;;;25.00;49.40;;;;;;6016903;23;87526;-82
2022/07/14 11:42:07;;;;;;;3.65;1.60;;;25.00;48.70;;;;;;6027313;23;89173;-82
2022/07/14 11:44:33;;;;;;;4.90;1.88;;;25.00;48.70;;;;;;6043345;23;88080;-83
2022/07/14 11:47:00;;;;;;;6.75;2.25;;;25.00;49.30;;;;;;6046626;23;86987;-83
2022/07/14 11:49:27;;;;;;;5.78;2.40;;;25.00;48.30;;;;;;6021568;23;89294;-83
2022/07/14 11:51:59;;;;;;;6.45;1.85;;;25.00;49.00;;;;;;6021378;23;89206;-83
2022/07/14 11:54:26;;;;;;;6.03;2.05;;;24.90;48.80;;;;;;6045679;23;87511;-83
2022/07/14 11:57:05;;;;;;;5.50;1.80;;;25.00;48.60;;;;;;6045022;23;88379;-82
2022/07/14 11:59:32;;;;;;;4.75;1.98;;;25.00;48.80;;;;;;6045424;23;86930;-82
2022/07/14 12:02:15;;;;;;;5.88;1.90;;;24.90;48.70;;;;;;6050050;23;87222;-82
2022/07/14 12:04:55;;;;;;;6.50;1.83;;;25.00;48.70;;;;;;6046174;23;88303;-82
2022/07/14 12:07:23;;;;;;;7.00;2.08;;;25.00;48.50;;;;;;6045819;23;87519;-83
2022/07/14 12:09:50;;;;;;;5.68;1.95;;;25.00;48.60;;;;;;6021496;23;89710;-82
2022/07/14 12:12:17;;;;;;;4.30;1.45;;;25.00;48.30;;;;;;6045877;23;88788;-82
2022/07/14 12:14:49;;;;;;;4.90;2.05;;;25.00;48.20;;;;;;6044955;23;87181;-83
2022/07/14 12:17:16;;;;;;;9.77;2.05;;;25.00;48.60;;;;;;6046733;23;87184;-84
2022/07/14 12:19:42;;;;;;;8.52;1.67;;;25.10;49.10;;;;;;6073432;23;87256;-83
2022/07/14 12:22:08;;;;;;;3.88;1.58;;;25.00;48.90;;;;;;6049584;23;92241;-84
2022/07/14 12:24:34;;;;;;;2.97;1.38;;;25.00;48.90;;;;;;6076880;23;89209;-84
2022/07/14 12:27:04;;;;;;;5.78;1.83;;;25.00;48.70;;;;;;6078635;23;86867;-83
2022/07/14 12:29:31;;;;;;;4.55;1.58;;;25.00;48.70;;;;;;6077443;23;88534;-82
2022/07/14 12:31:57;;;;;;;4.70;1.77;;;25.00;48.80;;;;;;6077802;23;87758;-82
2022/07/14 12:34:24;;;;;;;7.28;2.03;;;25.10;48.90;;;;;;6077693;23;88131;-83
2022/07/14 12:36:50;;;;;;;4.75;1.67;;;25.00;48.40;;;;;;6078225;23;86772;-83
2022/07/14 12:39:17;;;;;;;4.00;1.80;;;25.10;48.40;;;;;;6077835;23;87399;-83
2022/07/14 12:41:45;;;;;;;5.45;1.58;;;25.20;47.90;;;;;;6078156;23;87724;-83
2022/07/14 12:44:11;;;;;;;5.63;1.48;;;25.10;47.50;;;;;;6077416;23;89649;-83
2022/07/14 12:46:37;;;;;;;6.55;1.70;;;25.10;46.90;;;;;;6078511;23;88184;-83
2022/07/14 12:49:05;;;;;;;5.97;2.03;;;25.20;46.10;;;;;;6078460;23;87319;-83
2022/07/14 12:51:33;;;;;;;4.47;1.58;;;25.20;45.70;;;;;;6078499;23;88041;-83
2022/07/14 12:54:04;;;;;;;5.17;1.50;;;25.20;46.10;;;;;;6077484;23;86893;-83
2022/07/14 12:56:35;;;;;;;5.50;1.83;;;25.20;45.30;;;;;;6051543;23;87406;-83
2022/07/14 12:59:03;;;;;;;3.88;1.52;;;25.10;45.20;;;;;;6078391;23;87322;-83
2022/07/14 13:01:29;;;;;;;5.30;1.98;;;25.10;45.10;;;;;;6078471;23;88388;-83
2022/07/14 13:04:01;;;;;;;4.43;1.85;;;25.10;45.70;;;;;;6078863;23;88177;-83
2022/07/14 13:06:41;;;;;;;6.22;1.98;;;25.10;45.70;;;;;;6078189;23;86779;-83
2022/07/14 13:09:13;;;;;;;5.53;1.95;;;25.10;45.60;;;;;;6078261;23;87801;-83
2022/07/14 13:11:38;;;;;;;4.03;1.98;;;25.10;45.50;;;;;;6077342;23;91083;-83
2022/07/14 13:14:05;;;;;;;5.22;1.65;;;25.20;45.80;;;;;;6078497;23;87729;-83